Time;durP1;ratioP1;P1;durP2;ratioP2;P2;SDS_P1;SDS_P2;PMS_P1;PMS_P2;Temp;Humidity;BMP_temperature;BMP_pressure;BME280_temperature;BME280_humidity;BME280_pressure;Samples;Min_cycle;Max_cycle;Signal;HPM_P1;HPM_P2
2022/06/14 00:01:32;;;;;;;2.20;2.03;;;;;;;;;;4838524;29;20162;-77
2022/06/14 00:04:00;;;;;;;3.65;1.88;;;;;;;;;;4839116;29;20140;-78
2022/06/14 00:06:29;;;;;;;4.70;1.85;;;;;;;;;;4853741;29;20133;-78
2022/06/14 00:08:57;;;;;;;2.53;1.90;;;;;;;;;;4834099;29;20042;-78
2022/06/14 00:11:32;;;;;;;1.67;1.55;;;;;;;;;;4855001;29;20041;-78
2022/06/14 00:14:00;;;;;;;4.35;2.08;;;;;;;;;;4854387;29;20052;-77
2022/06/14 00:16:28;;;;;;;2.72;1.65;;;;;;;;;;4838374;29;20052;-77
2022/06/14 00:18:56;;;;;;;2.08;1.90;;;;;;;;;;4840811;29;20129;-77
2022/06/14 00:21:24;;;;;;;2.55;1.83;;;;;;;;;;4823771;29;20136;-76
2022/06/14 00:23:51;;;;;;;2.22;1.70;;;;;;;;;;4854809;29;20053;-77
2022/06/14 00:26:18;;;;;;;3.15;1.80;;;;;;;;;;4854623;29;20085;-77
2022/06/14 00:28:46;;;;;;;8.02;1.90;;;;;;;;;;4838110;29;20506;-77
2022/06/14 00:31:18;;;;;;;4.88;2.22;;;;;;;;;;4854866;29;20148;-77
2022/06/14 00:33:45;;;;;;;;;;;;;;;;;;4856112;29;20049;-77
2022/06/14 00:36:28;;;;;;;3.45;2.00;;;;;;;;;;4852846;29;19971;-77
2022/06/14 00:38:56;;;;;;;2.95;1.75;;;;;;;;;;4834778;29;20042;-77
2022/06/14 00:41:44;;;;;;;4.88;2.10;;;;;;;;;;4854012;29;20093;-77
2022/06/14 00:44:16;;;;;;;5.25;2.03;;;;;;;;;;4837720;29;20052;-77
2022/06/14 00:47:04;;;;;;;3.17;1.98;;;;;;;;;;4855098;29;20531;-77
2022/06/14 00:49:35;;;;;;;3.97;2.17;;;;;;;;;;4839939;29;20125;-77
2022/06/14 00:52:32;;;;;;;8.02;2.00;;;;;;;;;;4833429;29;20102;-77
2022/06/14 00:55:03;;;;;;;1.98;1.88;;;;;;;;;;4829326;29;20113;-77
2022/06/14 00:57:34;;;;;;;2.65;1.98;;;;;;;;;;4836006;29;20076;-76
2022/06/14 01:00:07;;;;;;;2.55;2.35;;;;;;;;;;4853668;29;20673;-77
2022/06/14 01:02:40;;;;;;;2.88;2.67;;;;;;;;;;4852574;29;20045;-77
2022/06/14 01:05:13;;;;;;;3.85;2.13;;;;;;;;;;4854400;29;20041;-77
2022/06/14 01:07:42;;;;;;;2.22;2.00;;;;;;;;;;4832236;29;20065;-77
2022/06/14 01:10:12;;;;;;;5.68;2.13;;;;;;;;;;4837294;29;20054;-77
2022/06/14 01:12:42;;;;;;;4.60;2.60;;;;;;;;;;4854547;29;20072;-77
2022/06/14 01:15:18;;;;;;;3.95;2.25;;;;;;;;;;4858075;29;20088;-77
2022/06/14 01:17:51;;;;;;;3.00;2.40;;;;;;;;;;4841895;29;20045;-77
2022/06/14 01:20:19;;;;;;;5.07;2.22;;;;;;;;;;4857725;29;20498;-77
2022/06/14 01:22:48;;;;;;;4.43;2.70;;;;;;;;;;4852162;29;20049;-77
2022/06/14 01:25:15;;;;;;;2.20;2.00;;;;;;;;;;4841708;29;20052;-77
2022/06/14 01:27:43;;;;;;;3.75;1.95;;;;;;;;;;4851054;29;20106;-77
2022/06/14 01:30:15;;;;;;;2.42;2.22;;;;;;;;;;4852518;29;20415;-77
2022/06/14 01:33:00;;;;;;;2.58;2.30;;;;;;;;;;4858661;29;20076;-77
2022/06/14 01:35:29;;;;;;;4.68;2.30;;;;;;;;;;4854715;29;20121;-77
2022/06/14 01:37:58;;;;;;;2.28;2.00;;;;;;;;;;4836879;29;20051;-77
2022/06/14 01:40:34;;;;;;;5.28;2.47;;;;;;;;;;4838288;29;20530;-77
2022/06/14 01:43:08;;;;;;;3.42;2.40;;;;;;;;;;4835731;29;20174;-77
2022/06/14 01:45:58;;;;;;;2.35;1.95;;;;;;;;;;4851110;29;20033;-77
2022/06/14 01:48:32;;;;;;;2.53;2.20;;;;;;;;;;4843971;29;20558;-77
2022/06/14 01:53:51;;;;;;;5.97;1.98;;;;;;;;;;4848515;29;20045;-77
2022/06/14 01:56:21;;;;;;;3.13;2.35;;;;;;;;;;4852506;29;20692;-77
2022/06/14 01:58:54;;;;;;;2.50;2.30;;;;;;;;;;4853865;29;20050;-77
2022/06/14 02:01:44;;;;;;;2.60;1.92;;;;;;;;;;4851588;29;20054;-77
2022/06/14 02:04:40;;;;;;;2.45;2.03;;;;;;;;;;4846288;29;20132;-77
2022/06/14 02:07:11;;;;;;;3.80;2.45;;;;;;;;;;4836469;29;20140;-77
2022/06/14 02:09:41;;;;;;;4.35;2.20;;;;;;;;;;4846177;29;20575;-77
2022/06/14 02:12:10;;;;;;;5.25;2.13;;;;;;;;;;4854757;29;20077;-77
2022/06/14 02:14:41;;;;;;;3.10;2.28;;;;;;;;;;4853507;29;20057;-76
2022/06/14 02:17:12;;;;;;;2.47;2.28;;;;;;;;;;4852797;29;20461;-77
2022/06/14 02:19:54;;;;;;;3.67;2.20;;;;;;;;;;4835526;29;20144;-77
2022/06/14 02:22:28;;;;;;;2.40;2.20;;;;;;;;;;4853108;29;20141;-77
2022/06/14 02:24:58;;;;;;;3.42;2.35;;;;;;;;;;4854354;29;20042;-77
2022/06/14 02:27:31;;;;;;;2.00;1.90;;;;;;;;;;4853121;29;20074;-77
2022/06/14 02:30:04;;;;;;;2.72;2.42;;;;;;;;;;4851909;29;20444;-77
2022/06/14 02:32:51;;;;;;;2.65;2.40;;;;;;;;;;4853694;29;20080;-77
2022/06/14 02:35:27;;;;;;;3.72;2.30;;;;;;;;;;4852554;29;20049;-77
2022/06/14 02:38:15;;;;;;;3.75;2.25;;;;;;;;;;4837677;29;20062;-77
2022/06/14 02:40:55;;;;;;;4.10;2.40;;;;;;;;;;4845778;29;20041;-77
2022/06/14 02:43:29;;;;;;;3.35;2.25;;;;;;;;;;4843802;29;20499;-77
2022/06/14 02:45:59;;;;;;;4.18;2.25;;;;;;;;;;4851735;29;20073;-77
2022/06/14 02:48:32;;;;;;;2.75;2.53;;;;;;;;;;4854423;29;20082;-77
2022/06/14 02:51:09;;;;;;;3.08;2.60;;;;;;;;;;4852920;29;20146;-76
2022/06/14 02:53:54;;;;;;;2.78;2.58;;;;;;;;;;4836476;29;20129;-77
2022/06/14 02:56:35;;;;;;;5.63;2.58;;;;;;;;;;4852757;29;20073;-77
2022/06/14 02:59:12;;;;;;;2.92;2.35;;;;;;;;;;4852468;29;20502;-76
2022/06/14 03:01:46;;;;;;;3.70;2.50;;;;;;;;;;4849817;29;20045;-76
2022/06/14 03:04:16;;;;;;;4.35;2.35;;;;;;;;;;4842066;29;20115;-76
2022/06/14 03:06:49;;;;;;;3.72;2.70;;;;;;;;;;4844957;29;20041;-77
2022/06/14 03:09:22;;;;;;;3.70;2.33;;;;;;;;;;4853338;29;20503;-76
2022/06/14 03:12:04;;;;;;;4.97;2.55;;;;;;;;;;4959897;23;20086;-86
2022/06/14 03:15:00;;;;;;;3.67;2.72;;;;;;;;;;4862538;29;20049;-86
2022/06/14 03:17:30;;;;;;;2.67;2.30;;;;;;;;;;4843460;29;20056;-86
2022/06/14 03:20:05;;;;;;;3.95;2.63;;;;;;;;;;4845890;29;20067;-87
2022/06/14 03:22:40;;;;;;;2.60;2.17;;;;;;;;;;4842073;29;20061;-86
2022/06/14 03:25:26;;;;;;;3.20;2.83;;;;;;;;;;4842477;29;20133;-86
2022/06/14 03:30:52;;;;;;;2.47;2.28;;;;;;;;;;4857149;29;20041;-80
2022/06/14 03:33:24;;;;;;;3.03;2.50;;;;;;;;;;4840703;29;20046;-80
2022/06/14 03:35:55;;;;;;;4.35;2.80;;;;;;;;;;4838106;29;20089;-80
2022/06/14 03:38:33;;;;;;;4.43;2.80;;;;;;;;;;4849191;29;20048;-80
2022/06/14 03:41:01;;;;;;;3.03;2.83;;;;;;;;;;4857531;29;20049;-80
2022/06/14 03:43:30;;;;;;;5.82;3.00;;;;;;;;;;4841216;29;20048;-80
2022/06/14 03:46:00;;;;;;;7.07;3.13;;;;;;;;;;4869409;29;20045;-79
2022/06/14 03:48:28;;;;;;;4.90;2.65;;;;;;;;;;4836916;29;20045;-80
2022/06/14 03:51:01;;;;;;;5.38;2.60;;;;;;;;;;4846698;29;20069;-80
2022/06/14 03:53:47;;;;;;;3.85;2.85;;;;;;;;;;4838378;29;20057;-80
2022/06/14 03:56:15;;;;;;;8.95;3.03;;;;;;;;;;4857506;29;20201;-80
2022/06/14 03:58:55;;;;;;;4.50;2.85;;;;;;;;;;4855335;29;20467;-80
2022/06/14 04:01:25;;;;;;;3.30;3.00;;;;;;;;;;4858984;29;20156;-80
2022/06/14 04:03:53;;;;;;;6.13;2.92;;;;;;;;;;4859656;29;20072;-80
2022/06/14 04:06:23;;;;;;;3.55;2.90;;;;;;;;;;4846651;29;20078;-80
2022/06/14 04:09:00;;;;;;;3.47;3.20;;;;;;;;;;4865313;29;20141;-81
2022/06/14 04:15:37;;;;;;;3.15;2.92;;;;;;;;;;4859681;29;20057;-80
2022/06/14 04:18:38;;;;;;;4.05;2.92;;;;;;;;;;4857754;29;20057;-79
2022/06/14 04:21:26;;;;;;;6.37;2.93;;;;;;;;;;4811641;29;20179;-80
2022/06/14 04:24:00;;;;;;;3.42;3.13;;;;;;;;;;4856505;29;20560;-80
2022/06/14 04:26:40;;;;;;;4.00;3.25;;;;;;;;;;4829432;29;20054;-80
2022/06/14 04:29:13;;;;;;;4.82;3.53;;;;;;;;;;4865766;29;20066;-80
2022/06/14 04:32:04;;;;;;;7.03;3.70;;;;;;;;;;4878302;29;20041;-80
2022/06/14 04:34:40;;;;;;;3.67;3.30;;;;;;;;;;4850807;29;20061;-80
2022/06/14 04:37:11;;;;;;;4.40;3.30;;;;;;;;;;4862007;29;20213;-80
2022/06/14 04:39:41;;;;;;;3.60;2.70;;;;;;;;;;4870196;29;20434;-81
2022/06/14 04:42:12;;;;;;;3.70;2.85;;;;;;;;;;4846433;29;20057;-79
2022/06/14 04:44:48;;;;;;;3.60;3.25;;;;;;;;;;4842766;29;20041;-80
2022/06/14 04:47:19;;;;;;;7.47;2.80;;;;;;;;;;4859877;29;20048;-80
2022/06/14 04:49:56;;;;;;;4.13;3.25;;;;;;;;;;4816215;29;20069;-80
2022/06/14 04:55:47;;;;;;;4.05;3.58;;;;;;;;;;4862957;29;20093;-80
2022/06/14 04:58:38;;;;;;;4.93;3.63;;;;;;;;;;4858286;29;20045;-80
2022/06/14 05:01:10;;;;;;;4.25;3.85;;;;;;;;;;4818626;29;20574;-80
2022/06/14 05:03:40;;;;;;;4.32;3.75;;;;;;;;;;4852428;29;20041;-80
2022/06/14 05:06:21;;;;;;;3.90;3.40;;;;;;;;;;4842775;29;20050;-80
2022/06/14 05:08:52;;;;;;;8.02;3.88;;;;;;;;;;4862128;29;20041;-80
2022/06/14 05:11:56;;;;;;;8.55;3.40;;;;;;;;;;4860137;29;20083;-80
2022/06/14 05:14:43;;;;;;;4.15;3.75;;;;;;;;;;4778479;29;20063;-80
2022/06/14 05:17:11;;;;;;;3.97;3.28;;;;;;;;;;4825402;29;20057;-79
2022/06/14 05:19:42;;;;;;;4.68;3.28;;;;;;;;;;4843385;29;20084;-80
2022/06/14 05:22:10;;;;;;;4.47;3.50;;;;;;;;;;4858231;29;20442;-80
2022/06/14 05:24:38;;;;;;;4.93;3.50;;;;;;;;;;4831690;29;20426;-79
2022/06/14 05:27:08;;;;;;;4.00;3.60;;;;;;;;;;4855254;29;20058;-80
2022/06/14 05:29:44;;;;;;;4.43;3.90;;;;;;;;;;4846292;29;20060;-80
2022/06/14 05:32:24;;;;;;;4.32;3.92;;;;;;;;;;4845498;29;20570;-80
2022/06/14 05:35:05;;;;;;;4.20;3.80;;;;;;;;;;4831045;29;20347;-80
2022/06/14 05:37:39;;;;;;;3.92;3.60;;;;;;;;;;4831708;29;20413;-80
2022/06/14 05:40:12;;;;;;;6.78;4.00;;;;;;;;;;4834058;29;20057;-80
2022/06/14 05:42:45;;;;;;;4.60;3.50;;;;;;;;;;4843226;29;20068;-80
2022/06/14 05:45:15;;;;;;;7.07;3.65;;;;;;;;;;4853506;29;20046;-80
2022/06/14 05:47:47;;;;;;;5.55;3.08;;;;;;;;;;4824556;29;20077;-81
2022/06/14 05:50:23;;;;;;;5.82;3.28;;;;;;;;;;4860905;29;20125;-77
2022/06/14 05:53:28;;;;;;;3.55;3.30;;;;;;;;;;4832798;29;20049;-79
2022/06/14 05:56:20;;;;;;;5.65;3.78;;;;;;;;;;4844589;29;20067;-79
2022/06/14 05:58:57;;;;;;;3.30;3.00;;;;;;;;;;4857098;29;20074;-79
2022/06/14 06:01:28;;;;;;;4.78;3.75;;;;;;;;;;4859717;29;20057;-80
2022/06/14 06:03:56;;;;;;;;;;;;;;;;;;4835455;29;20046;-80
2022/06/14 06:06:39;;;;;;;7.68;3.10;;;;;;;;;;4858838;29;20278;-79
2022/06/14 06:09:29;;;;;;;4.43;2.90;;;;;;;;;;4838237;29;20061;-79
2022/06/14 06:12:44;;;;;;;4.72;3.00;;;;;;;;;;4849636;29;20521;-80
2022/06/14 06:15:25;;;;;;;5.90;3.47;;;;;;;;;;4845296;29;20433;-80
2022/06/14 06:17:55;;;;;;;4.53;3.17;;;;;;;;;;4831097;29;20053;-80
2022/06/14 06:20:32;;;;;;;3.40;2.80;;;;;;;;;;4858023;29;20105;-80
2022/06/14 06:23:03;;;;;;;3.25;2.67;;;;;;;;;;4876942;29;20050;-80
2022/06/14 06:25:38;;;;;;;32.20;7.83;;;;;;;;;;4840417;29;20057;-79
2022/06/14 06:28:19;;;;;;;3.55;2.95;;;;;;;;;;4841716;29;20828;-79
2022/06/14 06:30:52;;;;;;;3.95;2.90;;;;;;;;;;4827318;29;20053;-81
2022/06/14 06:33:21;;;;;;;3.95;2.95;;;;;;;;;;4851857;29;20049;-79
2022/06/14 06:35:55;;;;;;;3.67;2.88;;;;;;;;;;4849417;29;20076;-82
2022/06/14 06:38:41;;;;;;;6.28;2.50;;;;;;;;;;4840914;29;20443;-80
2022/06/14 06:44:05;;;;;;;3.95;2.47;;;;;;;;;;4821335;29;20110;-80
2022/06/14 06:46:37;;;;;;;4.70;2.50;;;;;;;;;;4827728;29;20061;-80
2022/06/14 06:49:08;;;;;;;4.07;2.95;;;;;;;;;;4844337;29;20160;-80
2022/06/14 06:51:40;;;;;;;4.82;2.42;;;;;;;;;;4842009;29;20120;-80
2022/06/14 06:54:20;;;;;;;2.60;2.30;;;;;;;;;;4841262;29;20053;-81
2022/06/14 06:56:49;;;;;;;2.55;2.35;;;;;;;;;;4844483;29;20075;-80
2022/06/14 06:59:37;;;;;;;2.63;2.42;;;;;;;;;;4826466;29;20054;-81
2022/06/14 07:02:13;;;;;;;4.50;2.35;;;;;;;;;;4837997;29;20095;-81
2022/06/14 07:07:32;;;;;;;3.58;2.75;;;;;;;;;;4861601;29;20068;-81
2022/06/14 07:10:18;;;;;;;5.77;2.60;;;;;;;;;;4838189;29;20081;-81
2022/06/14 07:12:53;;;;;;;7.45;2.40;;;;;;;;;;4861891;29;20321;-80
2022/06/14 07:15:26;;;;;;;5.53;2.60;;;;;;;;;;4861888;29;20046;-81
2022/06/14 07:17:56;;;;;;;5.00;2.30;;;;;;;;;;4838568;29;20093;-81
2022/06/14 07:20:23;;;;;;;4.28;2.63;;;;;;;;;;4839537;29;20057;-80
2022/06/14 07:22:55;;;;;;;3.55;2.80;;;;;;;;;;4851408;29;20048;-81
2022/06/14 07:25:30;;;;;;;3.17;2.70;;;;;;;;;;4838858;29;20256;-80
2022/06/14 07:28:09;;;;;;;3.83;2.70;;;;;;;;;;4838445;29;20077;-81
2022/06/14 07:30:50;;;;;;;8.70;2.75;;;;;;;;;;4835710;29;20058;-79
2022/06/14 07:33:18;;;;;;;4.93;2.55;;;;;;;;;;4843067;29;20053;-81
2022/06/14 07:35:49;;;;;;;6.18;2.70;;;;;;;;;;4876720;29;20088;-80
2022/06/14 07:38:26;;;;;;;3.88;2.53;;;;;;;;;;4858212;29;20089;-80
2022/06/14 07:41:14;;;;;;;3.97;2.70;;;;;;;;;;4830944;29;20129;-81
2022/06/14 07:43:51;;;;;;;2.90;2.55;;;;;;;;;;4850185;29;20052;-79
2022/06/14 07:46:22;;;;;;;3.33;2.55;;;;;;;;;;4856297;29;20055;-80
2022/06/14 07:48:54;;;;;;;6.65;2.60;;;;;;;;;;4827345;29;20045;-80
2022/06/14 07:51:25;;;;;;;3.90;2.33;;;;;;;;;;4828077;29;20052;-80
2022/06/14 07:54:12;;;;;;;3.60;2.50;;;;;;;;;;4861970;29;20123;-82
2022/06/14 07:56:56;;;;;;;3.67;2.25;;;;;;;;;;4831070;29;20042;-82
2022/06/14 07:59:25;;;;;;;4.97;2.22;;;;;;;;;;4846358;29;20715;-81
2022/06/14 08:02:30;;;;;;;4.60;1.90;;;;;;;;;;4831051;29;20057;-81
2022/06/14 08:05:05;;;;;;;3.88;2.67;;;;;;;;;;4803379;29;20055;-82
2022/06/14 08:07:34;;;;;;;2.17;1.98;;;;;;;;;;4842720;29;20227;-81
2022/06/14 08:10:05;;;;;;;3.10;2.10;;;;;;;;;;4858591;29;20056;-80
2022/06/14 08:12:33;;;;;;;2.45;2.08;;;;;;;;;;4828860;29;20049;-81
2022/06/14 08:15:05;;;;;;;2.45;2.00;;;;;;;;;;4852042;29;20418;-81
2022/06/14 08:17:36;;;;;;;3.22;2.40;;;;;;;;;;4830279;29;20057;-80
2022/06/14 08:20:04;;;;;;;;;;;;;;;;;;4822124;29;20086;-79
2022/06/14 08:22:43;;;;;;;2.50;2.20;;;;;;;;;;4847291;29;19950;-80
2022/06/14 08:25:16;;;;;;;2.72;2.20;;;;;;;;;;4848158;29;20081;-79
2022/06/14 08:27:47;;;;;;;5.35;2.10;;;;;;;;;;4856426;29;20156;-81
2022/06/14 08:30:20;;;;;;;5.75;2.60;;;;;;;;;;4828963;29;20064;-82
2022/06/14 08:32:55;;;;;;;4.78;2.25;;;;;;;;;;4821717;29;20052;-81
2022/06/14 08:35:46;;;;;;;3.25;2.10;;;;;;;;;;4831238;29;20080;-81
2022/06/14 08:38:16;;;;;;;3.72;2.40;;;;;;;;;;4843333;29;20049;-81
2022/06/14 08:40:46;;;;;;;4.50;2.70;;;;;;;;;;4879029;29;20041;-81
2022/06/14 08:43:17;;;;;;;2.78;2.15;;;;;;;;;;4834499;29;20140;-81
2022/06/14 08:46:03;;;;;;;3.95;2.30;;;;;;;;;;4858265;29;20101;-81
2022/06/14 08:48:41;;;;;;;4.45;2.42;;;;;;;;;;4850323;29;20057;-82
2022/06/14 08:51:12;;;;;;;4.45;2.20;;;;;;;;;;4836144;29;20054;-80
2022/06/14 08:54:02;;;;;;;3.40;2.28;;;;;;;;;;4850099;29;20102;-80
2022/06/14 08:56:40;;;;;;;2.72;2.00;;;;;;;;;;4821087;29;20175;-80
2022/06/14 08:59:26;;;;;;;3.08;2.30;;;;;;;;;;4878060;29;20105;-80
2022/06/14 09:02:09;;;;;;;3.33;2.25;;;;;;;;;;4847630;29;20065;-81
2022/06/14 09:04:52;;;;;;;3.05;2.25;;;;;;;;;;4840570;29;20109;-80
2022/06/14 09:07:51;;;;;;;3.83;2.28;;;;;;;;;;4821132;29;20049;-81
2022/06/14 09:10:38;;;;;;;4.13;2.45;;;;;;;;;;4858232;29;20231;-80
2022/06/14 09:13:21;;;;;;;3.33;2.47;;;;;;;;;;4871452;29;20064;-81
2022/06/14 09:15:48;;;;;;;4.03;1.95;;;;;;;;;;4841796;29;20058;-80
2022/06/14 09:18:16;;;;;;;4.85;2.13;;;;;;;;;;4838802;29;20050;-80
2022/06/14 09:20:49;;;;;;;3.13;2.20;;;;;;;;;;4875442;29;20072;-80
2022/06/14 09:23:40;;;;;;;3.33;2.10;;;;;;;;;;4842676;29;20055;-82
2022/06/14 09:26:26;;;;;;;3.67;2.35;;;;;;;;;;4827174;29;20052;-82
2022/06/14 09:29:00;;;;;;;19.17;3.33;;;;;;;;;;4860596;24;20054;-78
2022/06/14 09:32:00;;;;;;;5.90;2.20;;;;;;;;;;4848528;29;20094;-78
2022/06/14 09:34:34;;;;;;;4.95;1.83;;;;;;;;;;4819355;29;20053;-79
2022/06/14 09:37:01;;;;;;;4.60;2.40;;;;;;;;;;4840930;29;21034;-79
2022/06/14 09:39:29;;;;;;;7.18;2.35;;;;;;;;;;4847185;29;20049;-78
2022/06/14 09:41:59;;;;;;;2.85;2.00;;;;;;;;;;4870882;29;20081;-78
2022/06/14 09:44:40;;;;;;;4.80;2.00;;;;;;;;;;4859525;29;20050;-78
2022/06/14 09:47:10;;;;;;;2.38;1.90;;;;;;;;;;4838773;29;20073;-77
2022/06/14 09:49:50;;;;;;;2.70;1.70;;;;;;;;;;4847807;29;20045;-79
2022/06/14 09:52:36;;;;;;;5.03;2.13;;;;;;;;;;4825803;29;20054;-78
2022/06/14 09:55:15;;;;;;;4.07;1.90;;;;;;;;;;4856054;29;20053;-78
2022/06/14 09:58:01;;;;;;;7.70;2.25;;;;;;;;;;4855721;29;20071;-79
2022/06/14 10:00:38;;;;;;;3.55;1.98;;;;;;;;;;4845901;29;20057;-77
2022/06/14 10:03:05;;;;;;;5.07;2.38;;;;;;;;;;4839352;29;20117;-78
2022/06/14 10:05:45;;;;;;;4.53;2.35;;;;;;;;;;4826747;29;20064;-78
2022/06/14 10:08:18;;;;;;;5.00;2.33;;;;;;;;;;4853226;29;20533;-78
2022/06/14 10:11:11;;;;;;;2.58;2.05;;;;;;;;;;4855585;29;20060;-78
2022/06/14 10:13:50;;;;;;;3.78;1.90;;;;;;;;;;4843156;29;20255;-78
2022/06/14 10:16:30;;;;;;;6.25;2.08;;;;;;;;;;4854214;29;20490;-78
2022/06/14 10:18:58;;;;;;;3.42;2.00;;;;;;;;;;4838916;29;20506;-78
2022/06/14 10:21:25;;;;;;;4.97;2.22;;;;;;;;;;4840124;29;20046;-78
2022/06/14 10:24:00;;;;;;;2.42;1.90;;;;;;;;;;4848701;29;20088;-80
2022/06/14 10:29:17;;;;;;;4.85;2.03;;;;;;;;;;4847129;29;20114;-78
2022/06/14 10:31:59;;;;;;;4.83;2.13;;;;;;;;;;4853932;29;20519;-78
2022/06/14 10:34:42;;;;;;;4.55;1.95;;;;;;;;;;4847262;29;20053;-79
2022/06/14 10:37:29;;;;;;;2.10;1.65;;;;;;;;;;4851608;29;20085;-79
2022/06/14 10:40:02;;;;;;;2.55;1.98;;;;;;;;;;4850406;29;20072;-79
2022/06/14 10:42:32;;;;;;;4.90;2.22;;;;;;;;;;4835387;29;20105;-79
2022/06/14 10:45:17;;;;;;;3.15;2.30;;;;;;;;;;4860312;29;20049;-80
2022/06/14 10:47:44;;;;;;;3.03;2.10;;;;;;;;;;4840050;29;20406;-79
2022/06/14 10:50:21;;;;;;;6.22;2.22;;;;;;;;;;4838805;29;20384;-79
2022/06/14 10:53:07;;;;;;;5.40;2.22;;;;;;;;;;4858816;29;20101;-79
2022/06/14 10:55:57;;;;;;;3.65;2.05;;;;;;;;;;4855606;29;20391;-78
2022/06/14 10:58:25;;;;;;;3.53;2.50;;;;;;;;;;4810787;29;20077;-79
2022/06/14 11:00:59;;;;;;;7.88;2.33;;;;;;;;;;4860698;29;20045;-79
2022/06/14 11:03:39;;;;;;;4.43;2.10;;;;;;;;;;4839787;29;20098;-78
2022/06/14 11:06:15;;;;;;;4.70;2.10;;;;;;;;;;4859811;29;20056;-78
2022/06/14 11:08:53;;;;;;;3.40;2.42;;;;;;;;;;4824359;29;20064;-79
2022/06/14 11:11:40;;;;;;;3.63;2.38;;;;;;;;;;4854439;29;20049;-78
2022/06/14 11:14:23;;;;;;;2.47;1.88;;;;;;;;;;4856811;29;20117;-78
2022/06/14 11:16:59;;;;;;;6.05;2.00;;;;;;;;;;4850332;29;20490;-79
2022/06/14 11:19:47;;;;;;;3.35;2.00;;;;;;;;;;4857715;29;20049;-78
2022/06/14 11:22:29;;;;;;;4.07;2.17;;;;;;;;;;4842753;29;20409;-79
2022/06/14 11:25:16;;;;;;;3.20;1.80;;;;;;;;;;4836946;29;20470;-79
2022/06/14 11:27:44;;;;;;;2.13;1.65;;;;;;;;;;4854720;29;20037;-79
2022/06/14 11:30:32;;;;;;;3.33;1.90;;;;;;;;;;4828639;29;20061;-80
2022/06/14 11:33:18;;;;;;;3.05;1.77;;;;;;;;;;4831162;29;20429;-80
2022/06/14 11:35:52;;;;;;;2.33;1.50;;;;;;;;;;4847434;29;20054;-79
2022/06/14 11:38:22;;;;;;;;;;;;;;;;;;4836871;29;20510;-79
2022/06/14 11:40:52;;;;;;;2.92;1.58;;;;;;;;;;4829768;29;19934;-78
2022/06/14 11:43:20;;;;;;;5.23;1.90;;;;;;;;;;4855764;29;20081;-78
2022/06/14 11:45:57;;;;;;;8.57;2.10;;;;;;;;;;4825481;29;20847;-79
2022/06/14 11:48:32;;;;;;;6.10;1.70;;;;;;;;;;4838222;29;20072;-79
2022/06/14 11:51:19;;;;;;;2.65;1.80;;;;;;;;;;4845266;29;20050;-78
2022/06/14 11:53:52;;;;;;;2.42;1.48;;;;;;;;;;4844493;29;20060;-78
2022/06/14 11:56:38;;;;;;;2.42;1.60;;;;;;;;;;4862863;29;20084;-79
2022/06/14 11:59:14;;;;;;;3.45;1.63;;;;;;;;;;4848059;29;20075;-80
2022/06/14 12:01:52;;;;;;;1.52;1.38;;;;;;;;;;4867638;29;20045;-79
2022/06/14 12:04:28;;;;;;;3.65;1.70;;;;;;;;;;4838683;29;20054;-80
2022/06/14 12:07:08;;;;;;;3.67;1.92;;;;;;;;;;4842636;29;20060;-79
2022/06/14 12:09:54;;;;;;;3.22;1.50;;;;;;;;;;4862361;29;20105;-79
2022/06/14 12:12:31;;;;;;;4.03;1.70;;;;;;;;;;4862204;29;20078;-79
2022/06/14 12:15:02;;;;;;;4.32;1.60;;;;;;;;;;4812718;29;20058;-79
2022/06/14 12:17:42;;;;;;;3.22;1.60;;;;;;;;;;4842784;29;20522;-79
2022/06/14 12:20:18;;;;;;;3.72;1.75;;;;;;;;;;4826852;29;20060;-79
2022/06/14 12:22:51;;;;;;;2.00;1.23;;;;;;;;;;4846443;29;20069;-79
2022/06/14 12:28:21;;;;;;;2.42;1.60;;;;;;;;;;4851247;29;20067;-79
2022/06/14 12:30:50;;;;;;;2.67;1.50;;;;;;;;;;4844492;29;20073;-79
2022/06/14 12:33:29;;;;;;;6.18;1.70;;;;;;;;;;4869919;29;20115;-79
2022/06/14 12:36:12;;;;;;;2.63;1.33;;;;;;;;;;4880590;29;20048;-80
2022/06/14 12:38:41;;;;;;;3.70;1.40;;;;;;;;;;4865152;29;20892;-80
2022/06/14 12:41:24;;;;;;;6.82;1.58;;;;;;;;;;4865434;29;20045;-79
2022/06/14 12:44:01;;;;;;;2.35;1.20;;;;;;;;;;4847626;29;20045;-79
2022/06/14 12:46:31;;;;;;;2.60;1.40;;;;;;;;;;4862203;29;20061;-79
2022/06/14 12:48:59;;;;;;;4.63;1.65;;;;;;;;;;4862402;29;20049;-80
2022/06/14 12:51:31;;;;;;;2.20;1.30;;;;;;;;;;4862604;29;20057;-79
2022/06/14 12:54:02;;;;;;;2.33;1.30;;;;;;;;;;4862762;29;20724;-79
2022/06/14 12:56:29;;;;;;;;;;;;;;;;;;4846884;29;20056;-79
2022/06/14 12:59:10;;;;;;;3.25;1.38;;;;;;;;;;4856853;29;20449;-80
2022/06/14 13:01:42;;;;;;;2.05;1.25;;;;;;;;;;4860960;29;20506;-80
2022/06/14 13:04:14;;;;;;;4.32;1.55;;;;;;;;;;4859478;29;20072;-80
2022/06/14 13:06:56;;;;;;;3.88;1.60;;;;;;;;;;4841617;29;20113;-80
2022/06/14 13:09:39;;;;;;;3.70;1.38;;;;;;;;;;4856174;29;20196;-80
2022/06/14 13:12:06;;;;;;;2.72;1.48;;;;;;;;;;4844897;29;20074;-80
2022/06/14 13:14:52;;;;;;;3.63;1.70;;;;;;;;;;4849822;29;20113;-79
2022/06/14 13:17:19;;;;;;;4.13;1.63;;;;;;;;;;4857437;29;20136;-80
2022/06/14 13:20:05;;;;;;;4.68;1.38;;;;;;;;;;4860331;29;20395;-80
2022/06/14 13:22:55;;;;;;;2.25;1.40;;;;;;;;;;4863868;29;20050;-80
2022/06/14 13:25:22;;;;;;;;;;;;;;;;;;4836816;29;20057;-80
2022/06/14 13:28:00;;;;;;;2.90;1.40;;;;;;;;;;4849797;29;20428;-80
2022/06/14 13:30:47;;;;;;;3.42;1.52;;;;;;;;;;4838014;29;20422;-79
2022/06/14 13:33:23;;;;;;;1.40;1.13;;;;;;;;;;4861451;29;20053;-80
2022/06/14 13:35:55;;;;;;;3.60;1.83;;;;;;;;;;4840240;29;20539;-80
2022/06/14 13:38:22;;;;;;;2.95;1.77;;;;;;;;;;4858949;29;20049;-80
2022/06/14 13:41:08;;;;;;;300.70;34.35;;;;;;;;;;4859646;29;20050;-78
2022/06/14 13:43:36;;;;;;;1.98;1.48;;;;;;;;;;4863903;29;20053;-79
2022/06/14 13:46:16;;;;;;;89.47;5.75;;;;;;;;;;4863704;29;20056;-78
2022/06/14 13:49:17;;;;;;;3.22;1.40;;;;;;;;;;4865544;29;20053;-79
2022/06/14 13:51:44;;;;;;;2.53;1.55;;;;;;;;;;4840713;29;20077;-79
2022/06/14 13:54:14;;;;;;;1.40;1.23;;;;;;;;;;4862421;29;20052;-79
2022/06/14 13:56:42;;;;;;;1.80;1.40;;;;;;;;;;4862851;29;20128;-79
2022/06/14 13:59:18;;;;;;;1.88;1.40;;;;;;;;;;4845267;29;20079;-79
2022/06/14 14:01:57;;;;;;;9.35;1.75;;;;;;;;;;4863090;29;20082;-79
2022/06/14 14:04:38;;;;;;;1.87;1.20;;;;;;;;;;4844116;29;20053;-78
2022/06/14 14:07:13;;;;;;;7.88;1.85;;;;;;;;;;4861080;29;20655;-78
2022/06/14 14:09:55;;;;;;;2.10;1.38;;;;;;;;;;4861552;29;20098;-78
2022/06/14 14:12:29;;;;;;;1.52;1.42;;;;;;;;;;4862898;29;20522;-78
2022/06/14 14:15:15;;;;;;;2.08;1.35;;;;;;;;;;4865766;29;20050;-79
2022/06/14 14:17:46;;;;;;;17.05;2.00;;;;;;;;;;4847883;29;20078;-79
2022/06/14 14:20:23;;;;;;;2.75;1.45;;;;;;;;;;4864837;29;20045;-78
2022/06/14 14:23:11;;;;;;;1.85;1.30;;;;;;;;;;4863293;29;20073;-79
2022/06/14 14:25:45;;;;;;;3.33;1.30;;;;;;;;;;4843960;29;20110;-79
2022/06/14 14:28:12;;;;;;;1.67;1.52;;;;;;;;;;4846231;29;20061;-79
2022/06/14 14:30:46;;;;;;;2.53;1.50;;;;;;;;;;4859302;29;20114;-79
2022/06/14 14:33:25;;;;;;;2.55;1.65;;;;;;;;;;4861522;29;20045;-77
2022/06/14 14:36:00;;;;;;;6.45;1.38;;;;;;;;;;4848827;29;21381;-79
2022/06/14 14:38:31;;;;;;;1.63;1.40;;;;;;;;;;4851192;29;20048;-79
2022/06/14 14:43:54;;;;;;;2.70;1.60;;;;;;;;;;4831726;29;19924;-79
2022/06/14 14:46:22;;;;;;;1.73;1.33;;;;;;;;;;4861160;29;20097;-80
2022/06/14 14:48:54;;;;;;;1.65;1.48;;;;;;;;;;4844570;29;20093;-79
2022/06/14 14:51:24;;;;;;;2.33;1.38;;;;;;;;;;4860606;29;20049;-79
2022/06/14 14:54:01;;;;;;;2.72;1.27;;;;;;;;;;4843820;29;20133;-79
2022/06/14 14:56:34;;;;;;;4.80;1.40;;;;;;;;;;4856353;29;20514;-79
2022/06/14 14:59:05;;;;;;;2.78;1.17;;;;;;;;;;4871777;29;20129;-79
2022/06/14 15:07:30;;;;;;;1.85;1.30;;;;;;;;;;4828780;29;20477;-80
2022/06/14 15:10:00;;;;;;;1.90;1.27;;;;;;;;;;4851138;29;20046;-78
2022/06/14 15:12:29;;;;;;;1.42;1.33;;;;;;;;;;4857230;29;20056;-79
2022/06/14 15:15:17;;;;;;;3.85;1.25;;;;;;;;;;4860898;29;20056;-78
2022/06/14 15:20:47;;;;;;;1.98;1.48;;;;;;;;;;4876394;29;21077;-78
2022/06/14 15:23:26;;;;;;;1.30;1.20;;;;;;;;;;4847963;29;20491;-77
2022/06/14 15:25:55;;;;;;;3.67;1.52;;;;;;;;;;4826918;29;20086;-78
2022/06/14 15:28:24;;;;;;;1.90;1.30;;;;;;;;;;4837772;29;20743;-78
2022/06/14 15:30:54;;;;;;;1.40;1.30;;;;;;;;;;4835478;29;20500;-77
2022/06/14 15:33:32;;;;;;;1.45;1.30;;;;;;;;;;4848981;29;20350;-78
2022/06/14 15:36:00;;;;;;;2.47;1.50;;;;;;;;;;4869373;29;20112;-78
2022/06/14 15:38:29;;;;;;;4.38;1.30;;;;;;;;;;4875290;29;20041;-78
2022/06/14 15:41:09;;;;;;;3.05;1.40;;;;;;;;;;4878133;29;20109;-78
2022/06/14 15:43:37;;;;;;;1.50;1.40;;;;;;;;;;4850882;29;20049;-78
2022/06/14 15:46:05;;;;;;;2.47;1.60;;;;;;;;;;4830432;29;20086;-78
2022/06/14 15:48:37;;;;;;;2.83;1.30;;;;;;;;;;4858530;29;20060;-78
2022/06/14 15:51:06;;;;;;;2.03;1.17;;;;;;;;;;4858838;29;20129;-78
2022/06/14 15:53:34;;;;;;;1.60;1.48;;;;;;;;;;4847999;24;20390;-82
2022/06/14 15:56:02;;;;;;;3.10;1.10;;;;;;;;;;4855411;29;20080;-82
2022/06/14 15:58:39;;;;;;;2.65;1.45;;;;;;;;;;4840322;29;20046;-82
2022/06/14 16:01:36;;;;;;;1.30;1.20;;;;;;;;;;4827957;29;20049;-81
2022/06/14 16:04:07;;;;;;;3.42;1.55;;;;;;;;;;4822375;29;20057;-82
2022/06/14 16:06:42;;;;;;;8.88;1.50;;;;;;;;;;4819717;29;20132;-82
2022/06/14 16:09:13;;;;;;;2.95;1.40;;;;;;;;;;4850496;29;20045;-82
2022/06/14 16:11:43;;;;;;;2.28;1.23;;;;;;;;;;4833925;29;20141;-82
2022/06/14 16:14:12;;;;;;;1.95;1.65;;;;;;;;;;4832536;29;20126;-82